createdAt,value
2018-03-31T00:00:03.741Z,6.80
2018-03-31T00:02:30.524Z,6.70
2018-03-31T00:04:57.286Z,6.70
2018-03-31T00:07:24.135Z,6.70
2018-03-31T00:09:51.677Z,6.70
2018-03-31T00:12:18.514Z,6.70
2018-03-31T00:14:45.432Z,6.60
2018-03-31T00:17:12.213Z,6.60
2018-03-31T00:19:38.927Z,6.50
2018-03-31T00:22:05.678Z,6.50
2018-03-31T00:24:33.334Z,6.70
2018-03-31T00:27:00.910Z,6.80
2018-03-31T00:29:27.770Z,6.80
2018-03-31T00:31:54.528Z,6.70
2018-03-31T00:34:21.419Z,6.70
2018-03-31T00:36:48.197Z,6.70
2018-03-31T00:39:15.028Z,6.70
2018-03-31T00:41:42.589Z,6.50
2018-03-31T00:44:09.402Z,6.60
2018-03-31T00:46:36.249Z,6.60
2018-03-31T00:49:03.022Z,6.50
2018-03-31T00:51:30.522Z,6.50
2018-03-31T00:53:57.286Z,6.50
2018-03-31T00:56:24.062Z,6.50
2018-03-31T00:58:50.780Z,6.50
2018-03-31T01:01:17.542Z,6.50
2018-03-31T01:03:44.323Z,6.50
2018-03-31T01:06:11.758Z,6.40
2018-03-31T01:08:38.840Z,6.50
2018-03-31T01:11:05.660Z,6.40
2018-03-31T01:13:32.361Z,6.40
2018-03-31T01:15:59.188Z,6.20
2018-03-31T01:18:25.878Z,6.10
2018-03-31T01:20:52.636Z,6.20
2018-03-31T01:23:19.354Z,6.10
2018-03-31T01:25:46.802Z,6.10
2018-03-31T01:28:14.276Z,6.20
2018-03-31T01:30:40.981Z,6.10
2018-03-31T01:33:07.693Z,6.20
2018-03-31T01:35:34.440Z,6.10
2018-03-31T01:38:01.142Z,6.10
2018-03-31T01:40:28.581Z,6.00
2018-03-31T01:42:56.070Z,6.10
2018-03-31T01:45:22.814Z,6.10
2018-03-31T01:47:49.517Z,6.10
2018-03-31T01:50:16.965Z,6.10
2018-03-31T01:52:44.421Z,6.10
2018-03-31T01:55:11.954Z,6.10
2018-03-31T01:57:38.660Z,6.10
2018-03-31T02:00:05.364Z,6.00
2018-03-31T02:02:32.853Z,6.00
2018-03-31T02:04:59.610Z,6.00
2018-03-31T02:07:26.304Z,5.80
2018-03-31T02:09:53.769Z,5.90
2018-03-31T02:12:21.209Z,5.90
2018-03-31T02:14:48.714Z,5.90
2018-03-31T02:17:15.439Z,5.90
2018-03-31T02:19:42.141Z,6.00
2018-03-31T02:22:08.837Z,6.00
2018-03-31T02:24:35.625Z,6.00
2018-03-31T02:27:02.315Z,5.90
2018-03-31T02:29:29.023Z,5.90
2018-03-31T02:31:56.482Z,5.70
2018-03-31T02:34:23.975Z,5.70
2018-03-31T02:36:50.738Z,5.70
2018-03-31T02:39:17.476Z,5.70
2018-03-31T02:41:44.902Z,5.60
2018-03-31T02:44:11.666Z,5.60
2018-03-31T02:46:38.370Z,5.60
2018-03-31T02:49:05.078Z,5.60
2018-03-31T02:51:32.568Z,5.60
2018-03-31T02:54:00.053Z,5.50
2018-03-31T02:56:26.762Z,5.50
2018-03-31T02:58:53.679Z,5.50
2018-03-31T03:01:21.133Z,5.40
2018-03-31T03:03:48.582Z,5.40
2018-03-31T03:06:15.330Z,5.40
2018-03-31T03:08:42.018Z,5.40
2018-03-31T03:11:08.733Z,5.40
2018-03-31T03:13:36.201Z,5.40
2018-03-31T03:16:03.669Z,5.30
2018-03-31T03:18:30.374Z,5.30
2018-03-31T03:20:57.846Z,5.40
2018-03-31T03:23:24.522Z,5.30
2018-03-31T03:25:51.265Z,5.40
2018-03-31T03:28:17.952Z,5.40
2018-03-31T03:30:45.393Z,5.60
2018-03-31T03:33:12.113Z,5.60
2018-03-31T03:35:38.934Z,5.50
2018-03-31T03:38:05.686Z,5.60
2018-03-31T03:40:32.401Z,5.60
2018-03-31T03:42:59.106Z,5.50
2018-03-31T03:45:26.593Z,5.40
2018-03-31T03:47:53.430Z,5.40
2018-03-31T03:50:20.132Z,5.30
2018-03-31T03:52:46.835Z,5.20
2018-03-31T03:55:13.598Z,5.20
2018-03-31T03:57:40.309Z,5.20
2018-03-31T04:00:07.034Z,5.20
2018-03-31T04:02:33.772Z,5.10
2018-03-31T04:05:00.537Z,5.00
2018-03-31T04:07:27.271Z,4.90
2018-03-31T04:09:54.158Z,4.90
2018-03-31T04:12:20.854Z,5.00
2018-03-31T04:14:47.738Z,5.00
2018-03-31T04:17:14.470Z,4.90
2018-03-31T04:19:41.208Z,4.80
2018-03-31T04:22:07.937Z,4.90
2018-03-31T04:24:34.702Z,4.70
2018-03-31T04:27:01.489Z,4.70
2018-03-31T04:29:28.209Z,4.80
2018-03-31T04:31:54.985Z,4.80
2018-03-31T04:34:21.722Z,4.80
2018-03-31T04:36:48.418Z,5.00
2018-03-31T04:39:15.141Z,5.00
2018-03-31T04:41:41.830Z,5.10
2018-03-31T04:44:08.574Z,5.10
2018-03-31T04:46:35.289Z,5.00
2018-03-31T04:49:02.713Z,5.20
2018-03-31T04:51:29.465Z,5.20
2018-03-31T04:53:56.289Z,5.30
2018-03-31T04:56:23.009Z,5.30
2018-03-31T04:58:49.760Z,5.30
2018-03-31T05:01:16.484Z,5.30
2018-03-31T05:03:43.264Z,5.20
2018-03-31T05:06:10.790Z,5.30
2018-03-31T05:08:37.785Z,5.30
2018-03-31T05:11:04.840Z,5.30
2018-03-31T05:13:32.014Z,5.40
2018-03-31T05:15:58.969Z,5.40
2018-03-31T05:18:25.806Z,5.50
2018-03-31T05:20:52.550Z,5.50
2018-03-31T05:23:19.340Z,5.60
2018-03-31T05:25:46.157Z,5.70
2018-03-31T05:28:12.901Z,5.70
2018-03-31T05:30:39.593Z,5.90
2018-03-31T05:33:06.349Z,6.00
2018-03-31T05:35:33.300Z,6.00
2018-03-31T05:38:01.169Z,6.10
2018-03-31T05:40:28.062Z,6.10
2018-03-31T05:42:55.501Z,6.40
2018-03-31T05:45:22.330Z,6.40
2018-03-31T05:47:49.109Z,6.60
2018-03-31T05:50:15.918Z,6.60
2018-03-31T05:52:43.617Z,6.80
2018-03-31T05:55:10.570Z,6.80
2018-03-31T05:57:37.325Z,6.80
2018-03-31T06:00:04.026Z,6.90
2018-03-31T06:02:30.950Z,6.90
2018-03-31T06:04:57.762Z,7.00
2018-03-31T06:07:24.509Z,7.10
2018-03-31T06:09:51.349Z,7.20
2018-03-31T06:12:18.122Z,7.20
2018-03-31T06:14:44.861Z,7.30
2018-03-31T06:17:11.584Z,7.30
2018-03-31T06:19:38.262Z,7.30
2018-03-31T06:22:05.710Z,7.40
2018-03-31T06:24:32.424Z,7.40
2018-03-31T06:26:59.145Z,7.40
2018-03-31T06:29:25.869Z,7.50
2018-03-31T06:31:52.738Z,7.50
2018-03-31T06:34:20.445Z,7.50
2018-03-31T06:36:47.221Z,7.50
2018-03-31T06:39:13.933Z,7.50
2018-03-31T06:41:41.430Z,7.50
2018-03-31T06:44:08.278Z,7.50
2018-03-31T06:46:35.184Z,7.60
2018-03-31T06:49:01.958Z,7.60
2018-03-31T06:51:28.697Z,7.60
2018-03-31T06:53:55.473Z,7.70
2018-03-31T06:56:22.245Z,7.60
2018-03-31T06:58:49.147Z,7.50
2018-03-31T07:01:16.048Z,7.60
2018-03-31T07:03:42.979Z,7.50
2018-03-31T07:06:09.726Z,7.40
2018-03-31T07:08:44.230Z,7.50
2018-03-31T07:11:11.697Z,7.70
2018-03-31T07:13:39.184Z,7.70
2018-03-31T07:16:06.929Z,7.70
2018-03-31T07:18:34.357Z,7.80
2018-03-31T07:21:01.832Z,8.00
2018-03-31T07:23:29.303Z,8.00
2018-03-31T07:25:56.190Z,8.00
2018-03-31T07:28:23.674Z,8.20
2018-03-31T07:30:50.382Z,8.20
2018-03-31T07:33:17.829Z,8.50
2018-03-31T07:35:44.558Z,8.50
2018-03-31T07:38:11.430Z,8.60
2018-03-31T07:40:38.343Z,8.80
2018-03-31T07:43:05.061Z,9.10
2018-03-31T07:45:32.866Z,9.20
2018-03-31T07:47:59.593Z,9.40
2018-03-31T07:50:26.322Z,9.50
2018-03-31T07:52:53.112Z,9.60
2018-03-31T07:55:20.055Z,9.80
2018-03-31T07:57:46.929Z,9.90
2018-03-31T08:00:14.530Z,10.00
2018-03-31T08:02:41.198Z,10.00
2018-03-31T08:05:09.757Z,10.20
2018-03-31T08:07:36.482Z,10.20
2018-03-31T08:10:03.213Z,10.40
2018-03-31T08:12:29.937Z,10.50
2018-03-31T08:14:57.421Z,10.90
2018-03-31T08:17:24.137Z,10.90
2018-03-31T08:19:50.846Z,11.10
2018-03-31T08:22:17.550Z,11.30
2018-03-31T08:24:44.284Z,11.50
2018-03-31T08:27:10.988Z,11.60
2018-03-31T08:29:37.722Z,11.60
2018-03-31T08:32:04.410Z,11.40
2018-03-31T08:34:31.136Z,11.40
2018-03-31T08:36:57.874Z,11.40
2018-03-31T08:39:24.619Z,11.30
2018-03-31T08:41:51.308Z,11.20
2018-03-31T08:44:18.025Z,11.10
2018-03-31T08:46:44.737Z,10.80
2018-03-31T08:49:11.429Z,10.80
2018-03-31T08:51:38.124Z,10.80
2018-03-31T08:54:05.901Z,10.80
2018-03-31T08:56:33.345Z,11.10
2018-03-31T08:59:00.047Z,11.00
2018-03-31T09:01:26.785Z,11.20
2018-03-31T09:03:53.606Z,11.30
2018-03-31T09:06:20.302Z,11.40
2018-03-31T09:08:47.037Z,11.40
2018-03-31T09:11:13.778Z,11.50
2018-03-31T09:13:40.508Z,11.60
2018-03-31T09:16:07.253Z,11.60
2018-03-31T09:18:34.683Z,11.70
2018-03-31T09:21:01.440Z,11.70
2018-03-31T09:23:28.877Z,11.60
2018-03-31T09:25:55.698Z,11.50
2018-03-31T09:28:22.368Z,11.60
2018-03-31T09:30:49.068Z,11.60
2018-03-31T09:33:15.792Z,11.60
2018-03-31T09:35:42.516Z,11.70
2018-03-31T09:38:09.253Z,11.70
2018-03-31T09:40:35.965Z,11.80
2018-03-31T09:43:02.694Z,11.80
2018-03-31T09:45:30.193Z,11.90
2018-03-31T09:47:57.093Z,11.80
2018-03-31T09:50:23.797Z,12.00
2018-03-31T09:52:50.519Z,12.10
2018-03-31T09:55:17.322Z,12.20
2018-03-31T09:57:44.766Z,12.30
2018-03-31T10:00:12.224Z,12.30
2018-03-31T10:02:39.693Z,12.20
2018-03-31T10:05:07.182Z,12.00
2018-03-31T10:07:33.876Z,12.00
2018-03-31T10:10:01.361Z,11.50
2018-03-31T10:12:28.789Z,11.50
2018-03-31T10:14:56.294Z,11.40
2018-03-31T10:17:23.013Z,11.40
2018-03-31T10:19:49.737Z,11.40
2018-03-31T10:22:16.485Z,11.40
2018-03-31T10:24:46.258Z,11.40
2018-03-31T10:27:13.042Z,11.40
2018-03-31T10:29:40.474Z,11.30
2018-03-31T10:32:07.197Z,11.30
2018-03-31T10:34:34.006Z,11.20
2018-03-31T10:37:00.877Z,11.30
2018-03-31T10:39:27.693Z,11.40
2018-03-31T10:41:54.385Z,11.50
2018-03-31T10:44:21.379Z,11.60
2018-03-31T10:46:48.207Z,11.60
2018-03-31T10:49:14.929Z,11.60
2018-03-31T10:51:42.441Z,11.60
2018-03-31T10:54:09.290Z,11.60
2018-03-31T10:56:35.993Z,11.60
2018-03-31T10:59:02.745Z,11.70
2018-03-31T11:01:29.450Z,11.70
2018-03-31T11:03:56.941Z,11.70
2018-03-31T11:06:23.822Z,11.70
2018-03-31T11:08:50.673Z,11.70
2018-03-31T11:11:17.432Z,11.80
2018-03-31T11:13:44.950Z,11.80
2018-03-31T11:16:11.789Z,11.80
2018-03-31T11:18:38.562Z,11.70
2018-03-31T11:21:06.035Z,11.60
2018-03-31T11:23:32.762Z,11.50
2018-03-31T11:26:00.269Z,11.60
2018-03-31T11:28:27.275Z,11.60
2018-03-31T11:30:55.008Z,11.70
2018-03-31T11:33:21.834Z,11.70
2018-03-31T11:35:49.710Z,11.80
2018-03-31T11:38:16.426Z,11.80
2018-03-31T11:40:43.292Z,11.90
2018-03-31T11:43:10.107Z,11.90
2018-03-31T11:45:37.880Z,11.90
2018-03-31T11:48:04.579Z,11.90
2018-03-31T11:50:32.226Z,12.10
2018-03-31T11:52:59.666Z,12.20
2018-03-31T11:55:26.477Z,12.20
2018-03-31T11:57:53.232Z,12.20
2018-03-31T12:00:19.976Z,12.10
2018-03-31T12:02:46.699Z,12.00
2018-03-31T12:05:14.470Z,11.90
2018-03-31T12:07:41.233Z,11.80
2018-03-31T12:10:07.958Z,11.70
2018-03-31T12:12:34.659Z,11.80
2018-03-31T12:15:03.225Z,11.80
2018-03-31T12:17:29.981Z,11.80
2018-03-31T12:19:56.691Z,11.70
2018-03-31T12:22:23.480Z,11.70
2018-03-31T12:24:52.208Z,11.70
2018-03-31T12:27:19.842Z,11.70
2018-03-31T12:29:46.775Z,11.70
2018-03-31T12:32:13.546Z,11.60
2018-03-31T12:34:48.102Z,11.60
2018-03-31T12:37:14.943Z,11.70
2018-03-31T12:39:41.798Z,11.70
2018-03-31T12:42:09.372Z,11.70
2018-03-31T12:44:39.762Z,11.60
2018-03-31T12:47:07.382Z,12.00
2018-03-31T12:49:34.224Z,12.00
2018-03-31T12:52:00.985Z,12.50
2018-03-31T12:54:29.768Z,13.20
2018-03-31T12:56:56.641Z,14.90
2018-03-31T12:59:24.152Z,15.30
2018-03-31T13:01:51.019Z,15.30
2018-03-31T13:04:18.721Z,14.40
2018-03-31T13:06:45.522Z,14.40
2018-03-31T13:09:12.351Z,14.00
2018-03-31T13:11:39.110Z,13.60
2018-03-31T13:14:13.330Z,13.50
2018-03-31T13:16:40.120Z,13.90
2018-03-31T13:19:06.903Z,16.70
2018-03-31T13:21:33.629Z,20.10
2018-03-31T13:24:01.442Z,21.80
2018-03-31T13:26:28.215Z,21.20
2018-03-31T13:28:54.971Z,20.80
2018-03-31T13:31:21.714Z,21.00
2018-03-31T13:33:48.458Z,21.60
2018-03-31T13:36:15.198Z,23.80
2018-03-31T13:38:42.010Z,24.40
2018-03-31T13:41:08.859Z,24.10
2018-03-31T13:43:36.221Z,22.20
2018-03-31T13:46:05.044Z,20.70
2018-03-31T13:48:31.747Z,19.80
2018-03-31T13:50:58.445Z,19.00
2018-03-31T13:53:25.172Z,18.20
2018-03-31T13:55:59.230Z,16.60
2018-03-31T13:58:26.669Z,16.00
2018-03-31T14:00:54.098Z,15.60
2018-03-31T14:03:20.789Z,15.50
2018-03-31T14:06:02.771Z,15.10
2018-03-31T14:08:29.540Z,14.80
2018-03-31T14:10:56.302Z,14.50
2018-03-31T14:13:23.185Z,14.40
2018-03-31T14:15:50.083Z,14.20
2018-03-31T14:18:16.853Z,14.30
2018-03-31T14:20:43.760Z,14.30
2018-03-31T14:23:10.546Z,14.10
2018-03-31T14:25:40.593Z,13.90
2018-03-31T14:28:07.449Z,13.90
2018-03-31T14:30:34.153Z,13.80
2018-03-31T14:33:00.904Z,13.60
2018-03-31T14:35:36.174Z,13.50
2018-03-31T14:38:03.085Z,13.40
2018-03-31T14:40:29.851Z,13.50
2018-03-31T14:42:56.661Z,13.30
2018-03-31T14:45:23.455Z,13.00
2018-03-31T14:47:50.204Z,12.90
2018-03-31T14:50:16.910Z,12.90
2018-03-31T14:52:43.803Z,12.90
2018-03-31T14:55:11.678Z,12.90
2018-03-31T14:57:39.199Z,12.60
2018-03-31T15:00:06.791Z,12.50
2018-03-31T15:02:33.654Z,12.50
2018-03-31T15:05:01.135Z,12.40
2018-03-31T15:07:27.852Z,12.40
2018-03-31T15:09:54.765Z,12.50
2018-03-31T15:12:21.476Z,12.60
2018-03-31T15:15:03.790Z,12.60
2018-03-31T15:17:30.596Z,12.70
2018-03-31T15:19:58.030Z,12.60
2018-03-31T15:22:25.643Z,12.40
2018-03-31T15:24:56.202Z,12.40
2018-03-31T15:27:23.942Z,12.40
2018-03-31T15:29:50.718Z,12.40
2018-03-31T15:32:17.586Z,12.40
2018-03-31T15:34:57.690Z,12.20
2018-03-31T15:37:24.418Z,12.10
2018-03-31T15:39:51.150Z,12.10
2018-03-31T15:42:17.917Z,11.80
2018-03-31T15:44:53.398Z,11.80
2018-03-31T15:47:20.277Z,11.70
2018-03-31T15:49:47.107Z,11.60
2018-03-31T15:52:13.822Z,11.60
2018-03-31T15:54:47.049Z,11.70
2018-03-31T15:57:13.847Z,11.60
2018-03-31T15:59:40.642Z,11.50
2018-03-31T16:02:07.518Z,11.50
2018-03-31T16:04:48.588Z,11.60
2018-03-31T16:07:15.319Z,11.60
2018-03-31T16:09:42.015Z,11.50
2018-03-31T16:12:08.722Z,11.50
2018-03-31T16:14:36.560Z,11.50
2018-03-31T16:17:03.282Z,11.50
2018-03-31T16:19:30.021Z,11.40
2018-03-31T16:21:56.774Z,11.40
2018-03-31T16:24:32.282Z,11.30
2018-03-31T16:26:59.037Z,11.40
2018-03-31T16:29:25.754Z,11.40
2018-03-31T16:31:52.498Z,11.40
2018-03-31T16:34:19.425Z,11.30
2018-03-31T16:36:47.033Z,11.40
2018-03-31T16:39:13.743Z,11.40
2018-03-31T16:41:40.505Z,11.50
2018-03-31T16:44:17.570Z,11.40
2018-03-31T16:46:44.316Z,11.30
2018-03-31T16:49:11.118Z,11.10
2018-03-31T16:51:38.610Z,10.90
2018-03-31T16:54:20.643Z,10.90
2018-03-31T16:56:47.346Z,10.90
2018-03-31T16:59:14.110Z,10.80
2018-03-31T17:01:40.872Z,10.80
2018-03-31T17:04:07.644Z,10.80
2018-03-31T17:06:34.346Z,10.70
2018-03-31T17:09:01.185Z,10.80
2018-03-31T17:11:28.707Z,10.70
2018-03-31T17:13:59.681Z,10.60
2018-03-31T17:16:26.434Z,10.60
2018-03-31T17:18:53.172Z,10.50
2018-03-31T17:21:20.665Z,10.40
2018-03-31T17:23:48.197Z,10.40
2018-03-31T17:26:14.916Z,10.50
2018-03-31T17:28:41.645Z,10.40
2018-03-31T17:31:08.555Z,10.30
2018-03-31T17:33:36.134Z,10.20
2018-03-31T17:36:05.684Z,10.20
2018-03-31T17:38:32.572Z,10.10
2018-03-31T17:41:00.102Z,10.00
2018-03-31T17:43:26.834Z,10.00
2018-03-31T17:46:08.233Z,10.00
2018-03-31T17:48:34.997Z,10.10
2018-03-31T17:51:02.485Z,10.20
2018-03-31T17:53:29.229Z,10.20
2018-03-31T17:56:00.618Z,10.20
2018-03-31T17:58:27.489Z,10.20
2018-03-31T18:00:54.379Z,10.10
2018-03-31T18:03:21.098Z,10.10
2018-03-31T18:05:49.973Z,10.00
2018-03-31T18:08:16.722Z,9.90
2018-03-31T18:10:43.502Z,9.90
2018-03-31T18:13:10.225Z,9.80
2018-03-31T18:15:38.061Z,9.70
2018-03-31T18:18:04.884Z,9.70
2018-03-31T18:20:31.638Z,9.70
2018-03-31T18:22:59.285Z,9.70
2018-03-31T18:25:30.512Z,9.60
2018-03-31T18:27:58.067Z,9.60
2018-03-31T18:30:24.774Z,9.60
2018-03-31T18:32:51.562Z,9.70
2018-03-31T18:35:19.101Z,9.80
2018-03-31T18:37:45.780Z,9.70
2018-03-31T18:40:14.044Z,9.70
2018-03-31T18:42:40.814Z,9.70
2018-03-31T18:45:17.659Z,9.80
2018-03-31T18:47:45.276Z,9.80
2018-03-31T18:50:11.998Z,9.80
2018-03-31T18:52:38.729Z,9.80
2018-03-31T18:55:06.533Z,9.70
2018-03-31T18:57:33.276Z,9.70
2018-03-31T18:59:59.997Z,9.60
2018-03-31T19:02:26.768Z,9.60
2018-03-31T19:04:57.911Z,9.50
2018-03-31T19:07:25.397Z,9.60
2018-03-31T19:09:52.158Z,9.50
2018-03-31T19:12:18.872Z,9.50
2018-03-31T19:14:53.648Z,9.40
2018-03-31T19:17:20.529Z,9.40
2018-03-31T19:19:47.372Z,9.30
2018-03-31T19:22:14.185Z,9.30
2018-03-31T19:24:46.989Z,9.30
2018-03-31T19:27:13.922Z,9.30
2018-03-31T19:29:41.514Z,9.30
2018-03-31T19:32:08.365Z,9.30
2018-03-31T19:34:46.613Z,9.30
2018-03-31T19:37:13.302Z,9.30
2018-03-31T19:39:47.011Z,9.30
2018-03-31T19:42:13.888Z,9.30
2018-03-31T19:44:40.741Z,9.30
2018-03-31T19:47:07.517Z,9.30
2018-03-31T19:49:34.990Z,9.30
2018-03-31T19:52:02.438Z,9.30
2018-03-31T19:54:34.210Z,9.20
2018-03-31T19:57:00.909Z,9.20
2018-03-31T19:59:27.742Z,9.20
2018-03-31T20:01:54.568Z,9.20
2018-03-31T20:04:22.379Z,9.10
2018-03-31T20:06:49.349Z,9.10
2018-03-31T20:09:16.200Z,9.10
2018-03-31T20:11:42.979Z,9.10
2018-03-31T20:14:09.737Z,9.10
2018-03-31T20:16:36.455Z,9.00
2018-03-31T20:19:03.325Z,9.00
2018-03-31T20:21:30.139Z,8.90
2018-03-31T20:23:58.118Z,8.90
2018-03-31T20:26:24.930Z,9.00
2018-03-31T20:28:51.702Z,9.00
2018-03-31T20:31:18.436Z,9.10
2018-03-31T20:33:45.175Z,9.10
2018-03-31T20:36:12.066Z,9.10
2018-03-31T20:38:38.819Z,9.20
2018-03-31T20:41:05.542Z,9.30
2018-03-31T20:43:32.242Z,9.20
2018-03-31T20:46:00.012Z,9.20
2018-03-31T20:48:26.765Z,9.20
2018-03-31T20:50:53.597Z,9.20
2018-03-31T20:53:20.312Z,9.30
2018-03-31T20:55:47.094Z,9.30
2018-03-31T20:58:13.790Z,9.30
2018-03-31T21:00:40.502Z,9.20
2018-03-31T21:03:07.240Z,9.30
2018-03-31T21:05:35.992Z,9.20
2018-03-31T21:08:02.701Z,9.10
2018-03-31T21:10:29.424Z,9.10
2018-03-31T21:12:56.847Z,8.80
2018-03-31T21:15:24.366Z,8.60
2018-03-31T21:17:51.121Z,8.60
2018-03-31T21:20:17.863Z,8.50
2018-03-31T21:22:44.566Z,8.40
2018-03-31T21:25:11.364Z,8.30
2018-03-31T21:27:38.097Z,8.20
2018-03-31T21:30:05.731Z,8.20
2018-03-31T21:32:32.633Z,8.10
2018-03-31T21:34:59.420Z,8.00
2018-03-31T21:37:26.111Z,7.90
2018-03-31T21:39:52.892Z,7.90
2018-03-31T21:42:19.627Z,7.90
2018-03-31T21:44:46.387Z,7.90
2018-03-31T21:47:13.105Z,7.90
2018-03-31T21:49:39.846Z,7.90
2018-03-31T21:52:07.346Z,8.00
2018-03-31T21:54:34.172Z,8.00
2018-03-31T21:57:00.878Z,8.00
2018-03-31T21:59:27.680Z,8.00
2018-03-31T22:01:55.172Z,7.90
2018-03-31T22:04:26.439Z,7.90
2018-03-31T22:06:53.206Z,7.90
2018-03-31T22:09:20.085Z,7.90
2018-03-31T22:11:46.845Z,7.90
2018-03-31T22:14:28.461Z,7.80
2018-03-31T22:16:55.932Z,7.80
2018-03-31T22:19:22.645Z,7.80
2018-03-31T22:21:49.367Z,7.80
2018-03-31T22:24:23.765Z,7.70
2018-03-31T22:26:50.483Z,7.70
2018-03-31T22:29:17.197Z,7.70
2018-03-31T22:31:44.106Z,7.70
2018-03-31T22:34:22.749Z,7.80
2018-03-31T22:36:49.491Z,7.80
2018-03-31T22:39:16.207Z,7.80
2018-03-31T22:41:42.971Z,7.70
2018-03-31T22:44:09.714Z,7.80
2018-03-31T22:46:36.486Z,7.70
2018-03-31T22:49:03.450Z,7.70
2018-03-31T22:51:30.202Z,7.70
2018-03-31T22:54:01.634Z,7.70
2018-03-31T22:56:28.365Z,7.70
2018-03-31T22:58:55.849Z,7.70
2018-03-31T23:01:23.321Z,7.70
2018-03-31T23:03:50.021Z,7.70
2018-03-31T23:06:16.715Z,7.80
2018-03-31T23:08:44.145Z,7.80
2018-03-31T23:11:10.836Z,7.80
2018-03-31T23:13:37.534Z,7.80
2018-03-31T23:16:05.037Z,7.80
2018-03-31T23:18:31.766Z,7.80
2018-03-31T23:20:58.516Z,7.70
2018-03-31T23:23:25.227Z,7.80
2018-03-31T23:25:51.980Z,7.70
2018-03-31T23:28:18.712Z,7.80
2018-03-31T23:30:45.463Z,7.80
2018-03-31T23:33:12.153Z,7.80
2018-03-31T23:35:46.400Z,7.80
2018-03-31T23:38:13.813Z,7.80
2018-03-31T23:40:41.463Z,7.90
2018-03-31T23:43:09.074Z,7.80
2018-03-31T23:45:42.559Z,7.80
2018-03-31T23:48:09.344Z,7.80
2018-03-31T23:50:36.093Z,7.80
2018-03-31T23:53:02.819Z,7.90
2018-03-31T23:55:36.812Z,7.90
2018-03-31T23:58:03.515Z,7.80
